createdAt,value
2023-04-03T00:01:30.878Z,7.60
2023-04-03T00:03:59.126Z,8.20
2023-04-03T00:06:28.713Z,7.20
2023-04-03T00:08:57.869Z,7.30
2023-04-03T00:11:26.851Z,7.90
2023-04-03T00:13:56.179Z,7.10
2023-04-03T00:16:24.675Z,6.10
2023-04-03T00:18:52.736Z,7.50
2023-04-03T00:21:21.081Z,6.10
2023-04-03T00:23:49.469Z,6.30
2023-04-03T00:26:18.269Z,7.10
2023-04-03T00:28:48.529Z,7.40
2023-04-03T00:31:17.624Z,6.70
2023-04-03T00:33:45.772Z,6.10
2023-04-03T00:36:14.818Z,6.50
2023-04-03T00:38:43.558Z,6.00
2023-04-03T00:41:12.007Z,7.50
2023-04-03T00:43:40.181Z,6.70
2023-04-03T00:46:09.918Z,5.70
2023-04-03T00:48:47.362Z,5.90
2023-04-03T00:51:24.057Z,5.20
2023-04-03T00:54:03.057Z,4.90
2023-04-03T00:56:33.516Z,6.00
2023-04-03T00:59:17.269Z,6.90
2023-04-03T01:01:46.358Z,5.10
2023-04-03T01:04:50.674Z,5.20
2023-04-03T01:07:30.519Z,5.90
2023-04-03T01:10:03.967Z,5.30
2023-04-03T01:12:40.002Z,4.70
2023-04-03T01:15:17.675Z,5.00
2023-04-03T01:18:05.973Z,6.40
2023-04-03T01:20:37.190Z,5.10
2023-04-03T01:23:43.032Z,5.70
2023-04-03T01:26:12.855Z,5.30
2023-04-03T01:28:42.353Z,5.30
2023-04-03T01:31:20.788Z,5.50
2023-04-03T01:33:50.016Z,4.90
2023-04-03T01:36:31.334Z,4.50
2023-04-03T01:39:01.937Z,5.10
2023-04-03T01:41:32.548Z,4.90
2023-04-03T01:44:10.126Z,4.20
2023-04-03T01:46:38.814Z,4.20
2023-04-03T01:49:07.264Z,4.60
2023-04-03T01:51:37.277Z,4.60
2023-04-03T01:54:06.893Z,4.20
2023-04-03T01:56:35.689Z,3.80
2023-04-03T01:59:04.058Z,4.10
2023-04-03T02:01:38.008Z,4.00
2023-04-03T02:04:06.876Z,5.40
2023-04-03T02:06:37.091Z,4.40
2023-04-03T02:09:05.677Z,4.50
2023-04-03T02:11:34.353Z,4.40
2023-04-03T02:14:02.728Z,4.70
2023-04-03T02:16:31.879Z,4.70
2023-04-03T02:19:00.310Z,3.90
2023-04-03T02:21:29.196Z,5.60
2023-04-03T02:23:58.092Z,4.50
2023-04-03T02:26:27.086Z,3.40
2023-04-03T02:28:55.477Z,3.20
2023-04-03T02:31:25.273Z,4.60
2023-04-03T02:33:54.192Z,3.40
2023-04-03T02:36:22.544Z,4.10
2023-04-03T02:38:56.736Z,3.80
2023-04-03T02:41:34.807Z,4.00
2023-04-03T02:44:06.217Z,4.20
2023-04-03T02:46:35.104Z,3.30
2023-04-03T02:49:05.437Z,2.90
2023-04-03T02:51:33.716Z,3.60
2023-04-03T02:54:02.618Z,4.00
2023-04-03T02:56:32.518Z,5.00
2023-04-03T02:59:01.265Z,4.90
2023-04-03T03:01:32.799Z,4.00
2023-04-03T03:04:02.092Z,3.20
2023-04-03T03:06:30.763Z,5.10
2023-04-03T03:09:01.598Z,3.50
2023-04-03T03:11:31.602Z,3.10
2023-04-03T03:14:00.113Z,4.00
2023-04-03T03:16:28.390Z,4.20
2023-04-03T03:19:00.158Z,3.00
2023-04-03T03:21:28.625Z,3.20
2023-04-03T03:23:57.384Z,3.40
2023-04-03T03:26:26.286Z,2.80
2023-04-03T03:28:54.566Z,3.10
2023-04-03T03:31:22.866Z,2.40
2023-04-03T03:33:51.310Z,3.80
2023-04-03T03:36:19.716Z,3.50
2023-04-03T03:38:47.732Z,3.30
2023-04-03T03:41:16.243Z,3.50
2023-04-03T03:43:45.026Z,4.00
2023-04-03T03:46:13.535Z,2.90
2023-04-03T03:48:41.990Z,3.50
2023-04-03T03:51:12.915Z,2.80
2023-04-03T03:53:41.631Z,2.40
2023-04-03T03:56:13.808Z,3.00
2023-04-03T03:58:43.118Z,3.10
2023-04-03T04:01:11.842Z,2.30
2023-04-03T04:03:43.851Z,3.20
2023-04-03T04:06:13.511Z,2.40
2023-04-03T04:08:42.136Z,3.90
2023-04-03T04:11:13.637Z,4.20
2023-04-03T04:13:44.114Z,2.70
2023-04-03T04:16:14.647Z,2.70
2023-04-03T04:18:44.869Z,2.90
2023-04-03T04:21:15.091Z,3.90
2023-04-03T04:23:44.799Z,3.90
2023-04-03T04:26:13.388Z,2.60
2023-04-03T04:28:42.208Z,3.00
2023-04-03T04:31:11.718Z,2.90
2023-04-03T04:33:42.484Z,2.90
2023-04-03T04:36:13.741Z,3.00
2023-04-03T04:38:42.976Z,3.10
2023-04-03T04:41:13.565Z,2.90
2023-04-03T04:43:44.116Z,3.00
2023-04-03T04:46:15.799Z,2.70
2023-04-03T04:48:49.363Z,3.50
2023-04-03T04:51:18.354Z,2.60
2023-04-03T04:53:46.877Z,3.30
2023-04-03T04:56:16.498Z,3.00
2023-04-03T04:58:45.151Z,3.50
2023-04-03T05:01:13.769Z,3.50
2023-04-03T05:03:49.285Z,3.00
2023-04-03T05:06:18.789Z,3.20
2023-04-03T05:08:47.372Z,3.50
2023-04-03T05:11:16.491Z,4.90
2023-04-03T05:13:45.466Z,3.50
2023-04-03T05:16:14.720Z,4.50
2023-04-03T05:18:43.243Z,3.20
2023-04-03T05:21:16.029Z,5.80
2023-04-03T05:23:47.076Z,4.50
2023-04-03T05:26:17.090Z,3.90
2023-04-03T05:28:46.924Z,4.20
2023-04-03T05:31:15.766Z,3.70
2023-04-03T05:33:47.555Z,4.60
2023-04-03T05:36:22.821Z,4.90
2023-04-03T05:38:59.219Z,4.30
2023-04-03T05:41:29.985Z,4.40
2023-04-03T05:43:58.163Z,5.80
2023-04-03T05:46:27.929Z,5.60
2023-04-03T05:49:00.941Z,5.20
2023-04-03T05:51:39.574Z,5.10
2023-04-03T05:54:29.507Z,4.40
2023-04-03T05:57:05.540Z,5.50
2023-04-03T05:59:35.084Z,7.20
2023-04-03T06:02:06.393Z,4.20
2023-04-03T06:04:35.831Z,5.50
2023-04-03T06:07:06.723Z,5.60
2023-04-03T06:09:39.307Z,5.70
2023-04-03T06:12:09.887Z,4.60
2023-04-03T06:14:42.072Z,5.70
2023-04-03T06:17:14.194Z,4.90
2023-04-03T06:19:44.673Z,6.50
2023-04-03T06:22:16.355Z,9.10
2023-04-03T06:24:46.468Z,9.20
2023-04-03T06:27:17.284Z,11.70
2023-04-03T06:29:47.769Z,13.00
2023-04-03T06:32:19.164Z,11.10
2023-04-03T06:34:51.326Z,8.90
2023-04-03T06:37:27.428Z,9.80
2023-04-03T06:40:00.721Z,7.40
2023-04-03T06:42:30.009Z,10.00
2023-04-03T06:45:18.555Z,8.60
2023-04-03T06:47:48.994Z,8.80
2023-04-03T06:50:18.298Z,10.10
2023-04-03T06:52:46.909Z,11.80
2023-04-03T06:55:15.570Z,9.40
2023-04-03T06:57:44.609Z,8.60
2023-04-03T07:00:15.152Z,8.60
2023-04-03T07:02:43.991Z,6.60
2023-04-03T07:05:16.110Z,8.00
2023-04-03T07:07:45.719Z,7.80
2023-04-03T07:10:14.123Z,7.90
2023-04-03T07:12:45.694Z,7.50
2023-04-03T07:15:15.804Z,8.00
2023-04-03T07:17:43.974Z,7.80
2023-04-03T07:20:13.245Z,7.80
2023-04-03T07:22:43.113Z,6.30
2023-04-03T07:25:12.090Z,7.30
2023-04-03T07:27:40.967Z,8.80
2023-04-03T07:30:10.503Z,10.00
2023-04-03T07:32:39.192Z,10.50
2023-04-03T07:35:09.365Z,8.80
2023-04-03T07:37:37.698Z,11.00
2023-04-03T07:40:08.062Z,8.80
2023-04-03T07:42:40.996Z,9.60
2023-04-03T07:45:10.790Z,8.50
2023-04-03T07:47:39.345Z,11.10
2023-04-03T07:50:10.263Z,8.30
2023-04-03T07:52:38.850Z,9.30
2023-04-03T07:55:08.312Z,7.90
2023-04-03T07:57:36.683Z,9.20
2023-04-03T08:00:07.360Z,9.80
2023-04-03T08:02:54.128Z,8.90
2023-04-03T08:05:23.316Z,9.00
2023-04-03T08:07:51.630Z,8.70
2023-04-03T08:10:20.818Z,10.00
2023-04-03T08:12:49.794Z,8.40
2023-04-03T08:15:18.576Z,8.10
2023-04-03T08:17:47.088Z,7.80
2023-04-03T08:20:16.950Z,8.00
2023-04-03T08:22:49.367Z,8.10
2023-04-03T08:25:19.681Z,8.40
2023-04-03T08:27:52.321Z,8.80
2023-04-03T08:30:20.730Z,7.90
2023-04-03T08:32:49.338Z,8.70
2023-04-03T08:35:17.768Z,7.80
2023-04-03T08:37:46.174Z,8.80
2023-04-03T08:40:18.825Z,7.10
2023-04-03T08:42:59.936Z,8.60
2023-04-03T08:45:51.928Z,8.90
2023-04-03T08:48:30.786Z,7.10
2023-04-03T08:51:12.672Z,7.20
2023-04-03T08:53:53.449Z,8.30
2023-04-03T08:56:27.667Z,7.70
2023-04-03T08:59:06.764Z,7.40
2023-04-03T09:01:39.497Z,6.70
2023-04-03T09:04:21.785Z,8.90
2023-04-03T09:06:59.991Z,8.90
2023-04-03T09:09:42.686Z,6.90
2023-04-03T09:12:27.904Z,9.10
2023-04-03T09:17:48.659Z,7.20
2023-04-03T09:20:56.100Z,7.10
2023-04-03T09:23:52.142Z,6.30
2023-04-03T09:27:00.989Z,8.40
2023-04-03T09:29:30.978Z,6.20
2023-04-03T09:32:19.829Z,7.20
2023-04-03T09:34:52.517Z,6.00
2023-04-03T09:37:48.717Z,6.80
2023-04-03T09:40:27.780Z,6.70
2023-04-03T09:43:21.319Z,8.10
2023-04-03T09:45:53.690Z,6.40
2023-04-03T09:48:29.435Z,6.30
2023-04-03T09:51:01.101Z,5.40
2023-04-03T09:53:46.869Z,6.50
2023-04-03T09:56:15.186Z,8.20
2023-04-03T09:58:51.435Z,46.80
2023-04-03T10:01:29.281Z,15.90
2023-04-03T10:04:17.195Z,23.70
2023-04-03T10:06:52.814Z,42.00
2023-04-03T10:09:30.014Z,23.10
2023-04-03T10:12:06.190Z,16.10
2023-04-03T10:15:00.476Z,12.00
2023-04-03T10:18:14.579Z,12.60
2023-04-03T10:20:53.835Z,11.30
2023-04-03T10:23:47.036Z,10.60
2023-04-03T10:26:45.298Z,8.60
2023-04-03T10:29:48.014Z,8.40
2023-04-03T10:32:50.172Z,8.10
2023-04-03T10:36:02.943Z,8.50
2023-04-03T10:38:52.567Z,7.10
2023-04-03T10:41:47.466Z,7.80
2023-04-03T10:45:13.602Z,9.60
2023-04-03T10:47:56.825Z,8.30
2023-04-03T10:51:06.448Z,6.20
2023-04-03T10:54:25.728Z,7.30
2023-04-03T10:57:13.184Z,8.60
2023-04-03T10:59:54.134Z,8.80
2023-04-03T11:02:43.479Z,6.30
2023-04-03T11:05:51.620Z,6.80
2023-04-03T11:09:02.100Z,8.10
2023-04-03T11:11:38.457Z,6.40
2023-04-03T11:14:32.432Z,6.20
2023-04-03T11:17:24.823Z,7.20
2023-04-03T11:19:58.889Z,6.80
2023-04-03T11:22:39.093Z,6.90
2023-04-03T11:25:14.074Z,6.40
2023-04-03T11:27:55.658Z,7.70
2023-04-03T11:30:45.971Z,7.40
2023-04-03T11:33:45.154Z,6.50
2023-04-03T11:36:26.032Z,8.00
2023-04-03T11:41:44.062Z,6.00
2023-04-03T11:44:39.500Z,7.20
2023-04-03T11:47:13.042Z,6.80
2023-04-03T11:50:06.835Z,5.30
2023-04-03T11:52:44.751Z,6.10
2023-04-03T11:55:22.597Z,5.70
2023-04-03T11:58:04.856Z,5.50
2023-04-03T12:00:51.091Z,6.40
2023-04-03T12:03:30.655Z,4.90
2023-04-03T12:06:11.426Z,5.00
2023-04-03T12:08:49.111Z,5.30
2023-04-03T12:11:32.438Z,7.90
2023-04-03T12:14:01.818Z,10.30
2023-04-03T12:16:40.693Z,9.70
2023-04-03T12:19:42.310Z,10.20
2023-04-03T12:22:22.093Z,8.90
2023-04-03T12:24:55.042Z,9.60
2023-04-03T12:27:35.832Z,9.50
2023-04-03T12:30:05.454Z,10.70
2023-04-03T12:32:44.300Z,10.20
2023-04-03T12:36:01.780Z,10.20
2023-04-03T12:39:07.263Z,9.00
2023-04-03T12:42:12.154Z,9.40
2023-04-03T12:45:09.825Z,8.20
2023-04-03T12:47:46.384Z,8.80
2023-04-03T12:50:31.839Z,8.40
2023-04-03T12:53:14.279Z,8.60
2023-04-03T12:55:42.452Z,7.40
2023-04-03T12:58:23.230Z,8.80
2023-04-03T13:01:13.643Z,9.00
2023-04-03T13:03:47.104Z,7.20
2023-04-03T13:06:43.461Z,8.20
2023-04-03T13:09:23.429Z,8.90
2023-04-03T13:12:00.791Z,7.60
2023-04-03T13:14:32.264Z,9.80
2023-04-03T13:17:11.580Z,9.80
2023-04-03T13:19:43.345Z,11.70
2023-04-03T13:22:23.457Z,12.00
2023-04-03T13:24:54.230Z,12.20
2023-04-03T13:27:23.123Z,16.50
2023-04-03T13:29:55.700Z,18.50
2023-04-03T13:32:29.657Z,20.60
2023-04-03T13:35:15.563Z,20.30
2023-04-03T13:38:01.522Z,21.50
2023-04-03T13:40:38.033Z,25.90
2023-04-03T13:43:27.030Z,22.50
2023-04-03T13:46:13.845Z,19.50
2023-04-03T13:48:53.369Z,20.60
2023-04-03T13:51:27.370Z,22.20
2023-04-03T13:54:00.847Z,21.60
2023-04-03T13:56:39.312Z,23.50
2023-04-03T13:59:33.064Z,21.70
2023-04-03T14:02:04.427Z,20.40
2023-04-03T14:04:36.610Z,20.20
2023-04-03T14:07:07.740Z,24.30
2023-04-03T14:09:38.448Z,20.40
2023-04-03T14:12:30.806Z,22.40
2023-04-03T14:15:07.215Z,18.70
2023-04-03T14:17:38.082Z,20.80
2023-04-03T14:20:08.637Z,21.30
2023-04-03T14:22:37.436Z,23.50
2023-04-03T14:25:07.047Z,22.90
2023-04-03T14:27:43.982Z,22.20
2023-04-03T14:30:35.206Z,23.00
2023-04-03T14:33:03.658Z,21.40
2023-04-03T14:35:32.390Z,23.60
2023-04-03T14:38:01.431Z,20.30
2023-04-03T14:40:29.682Z,20.60
2023-04-03T14:42:58.579Z,20.70
2023-04-03T14:45:27.613Z,21.20
2023-04-03T14:47:57.866Z,21.70
2023-04-03T14:50:28.989Z,20.50
2023-04-03T14:53:00.468Z,22.90
2023-04-03T14:55:29.588Z,20.50
2023-04-03T14:57:58.296Z,19.30
2023-04-03T15:00:26.854Z,17.30
2023-04-03T15:02:57.565Z,20.50
2023-04-03T15:05:27.800Z,18.90
2023-04-03T15:07:58.602Z,17.10
2023-04-03T15:10:31.461Z,15.60
2023-04-03T15:12:59.932Z,17.30
2023-04-03T15:15:31.384Z,16.40
2023-04-03T15:18:00.759Z,17.30
2023-04-03T15:20:32.234Z,18.30
2023-04-03T15:23:02.336Z,16.10
2023-04-03T15:25:32.732Z,18.50
2023-04-03T15:28:01.656Z,15.80
2023-04-03T15:30:29.922Z,17.10
2023-04-03T15:32:58.734Z,14.10
2023-04-03T15:35:27.230Z,15.40
2023-04-03T15:37:55.877Z,11.10
2023-04-03T15:40:24.608Z,13.60
2023-04-03T15:42:54.490Z,13.30
2023-04-03T15:45:23.791Z,12.60
2023-04-03T15:47:52.916Z,13.30
2023-04-03T15:50:25.120Z,13.20
2023-04-03T15:52:56.203Z,15.10
2023-04-03T15:55:30.465Z,15.50
2023-04-03T15:57:59.944Z,13.70
2023-04-03T16:00:28.813Z,16.80
2023-04-03T16:03:07.400Z,22.70
2023-04-03T16:05:39.012Z,21.50
2023-04-03T16:08:09.201Z,25.00
2023-04-03T16:10:38.598Z,23.90
2023-04-03T16:13:07.900Z,25.90
2023-04-03T16:15:37.237Z,25.60
2023-04-03T16:18:06.893Z,29.60
2023-04-03T16:20:36.814Z,23.70
2023-04-03T16:23:05.811Z,27.10
2023-04-03T16:25:34.196Z,25.50
2023-04-03T16:28:02.289Z,25.80
2023-04-03T16:30:30.848Z,25.80
2023-04-03T16:32:59.989Z,24.30
2023-04-03T16:35:28.947Z,25.40
2023-04-03T16:37:57.321Z,25.50
2023-04-03T16:40:26.725Z,25.20
2023-04-03T16:42:54.896Z,23.60
2023-04-03T16:45:23.892Z,23.00
2023-04-03T16:47:52.234Z,22.40
2023-04-03T16:50:21.175Z,23.10
2023-04-03T16:52:49.536Z,22.80
2023-04-03T16:55:18.429Z,23.10
2023-04-03T16:57:49.887Z,23.10
2023-04-03T17:00:19.195Z,24.10
2023-04-03T17:02:48.101Z,22.10
2023-04-03T17:05:18.214Z,19.90
2023-04-03T17:07:47.188Z,18.50
2023-04-03T17:10:16.516Z,18.50
2023-04-03T17:12:45.581Z,19.30
2023-04-03T17:15:14.067Z,21.40
2023-04-03T17:17:42.825Z,21.40
2023-04-03T17:20:12.370Z,20.10
2023-04-03T17:22:41.669Z,18.90
2023-04-03T17:25:11.168Z,21.40
2023-04-03T17:27:39.729Z,21.10
2023-04-03T17:30:09.057Z,15.40
2023-04-03T17:32:38.761Z,15.90
2023-04-03T17:35:10.178Z,16.20
2023-04-03T17:37:39.886Z,19.10
2023-04-03T17:40:09.504Z,15.70
2023-04-03T17:42:37.608Z,18.60
2023-04-03T17:45:07.628Z,15.80
2023-04-03T17:47:36.213Z,13.60
2023-04-03T17:50:06.148Z,15.60
2023-04-03T17:52:34.535Z,14.40
2023-04-03T17:55:04.310Z,13.00
2023-04-03T17:57:32.700Z,13.60
2023-04-03T18:00:01.586Z,13.70
2023-04-03T18:02:30.346Z,14.90
2023-04-03T18:04:58.762Z,12.50
2023-04-03T18:07:29.449Z,13.20
2023-04-03T18:10:00.347Z,12.80
2023-04-03T18:12:28.601Z,12.80
2023-04-03T18:15:00.575Z,12.30
2023-04-03T18:17:28.783Z,11.00
2023-04-03T18:19:59.121Z,11.20
2023-04-03T18:22:29.178Z,10.50
2023-04-03T18:24:59.295Z,12.20
2023-04-03T18:27:28.816Z,11.00
2023-04-03T18:30:05.156Z,9.70
2023-04-03T18:32:33.587Z,10.40
2023-04-03T18:35:02.599Z,10.60
2023-04-03T18:37:32.540Z,11.50
2023-04-03T18:40:02.193Z,10.70
2023-04-03T18:42:30.658Z,10.60
2023-04-03T18:45:05.613Z,8.90
2023-04-03T18:47:34.605Z,10.90
2023-04-03T18:50:06.127Z,8.90
2023-04-03T18:52:34.616Z,8.30
2023-04-03T18:55:02.998Z,10.30
2023-04-03T18:57:31.785Z,10.10
2023-04-03T19:00:00.276Z,8.30
2023-04-03T19:02:29.895Z,9.80
2023-04-03T19:04:58.151Z,9.30
2023-04-03T19:07:28.805Z,8.30
2023-04-03T19:09:57.964Z,9.30
2023-04-03T19:12:26.975Z,9.60
2023-04-03T19:14:55.913Z,7.20
2023-04-03T19:17:24.353Z,8.10
2023-04-03T19:19:52.699Z,10.60
2023-04-03T19:22:21.589Z,6.80
2023-04-03T19:24:50.198Z,9.00
2023-04-03T19:27:18.790Z,7.30
2023-04-03T19:29:50.770Z,7.60
2023-04-03T19:32:19.025Z,6.40
2023-04-03T19:34:48.372Z,7.40
2023-04-03T19:37:17.695Z,8.50
2023-04-03T19:39:46.599Z,8.50
2023-04-03T19:42:15.308Z,7.00
2023-04-03T19:44:44.499Z,7.70
2023-04-03T19:47:16.365Z,7.70
2023-04-03T19:49:50.049Z,6.90
2023-04-03T19:54:49.582Z,6.80
2023-04-03T19:57:20.459Z,7.10
2023-04-03T19:59:49.984Z,7.90
2023-04-03T20:02:19.138Z,7.30
2023-04-03T20:04:48.316Z,9.00
2023-04-03T20:07:17.945Z,7.60
2023-04-03T20:09:47.658Z,7.40
2023-04-03T20:12:19.084Z,6.30
2023-04-03T20:14:47.974Z,6.00
2023-04-03T20:17:16.786Z,7.70
2023-04-03T20:19:46.489Z,6.50
2023-04-03T20:22:16.813Z,6.40
2023-04-03T20:24:46.496Z,6.00
2023-04-03T20:27:16.651Z,7.30
2023-04-03T20:29:48.518Z,6.70
2023-04-03T20:32:17.572Z,6.50
2023-04-03T20:34:57.275Z,6.40
2023-04-03T20:37:29.429Z,6.20
2023-04-03T20:39:57.895Z,5.70
2023-04-03T20:42:26.389Z,6.20
2023-04-03T20:44:57.521Z,5.80
2023-04-03T20:47:26.475Z,7.50
2023-04-03T20:49:56.789Z,6.00
2023-04-03T20:52:25.417Z,7.50
2023-04-03T20:54:55.253Z,6.40
2023-04-03T20:57:24.737Z,7.90
2023-04-03T20:59:54.012Z,6.80
2023-04-03T21:02:23.206Z,6.90
2023-04-03T21:04:58.797Z,7.00
2023-04-03T21:08:23.912Z,6.90
2023-04-03T21:11:49.925Z,7.60
2023-04-03T21:15:15.260Z,7.80
2023-04-03T21:18:08.300Z,7.10
2023-04-03T21:20:38.019Z,7.30
2023-04-03T21:23:07.208Z,7.40
2023-04-03T21:25:36.136Z,7.40
2023-04-03T21:28:04.590Z,7.70
2023-04-03T21:30:33.162Z,7.80
2023-04-03T21:33:02.062Z,8.80
2023-04-03T21:35:31.049Z,6.60
2023-04-03T21:37:59.650Z,8.00
2023-04-03T21:40:28.832Z,7.20
2023-04-03T21:42:57.729Z,8.40
2023-04-03T21:45:25.801Z,7.50
2023-04-03T21:47:55.319Z,7.60
2023-04-03T21:50:24.953Z,7.30
2023-04-03T21:52:54.823Z,6.40
2023-04-03T21:55:23.818Z,8.40
2023-04-03T21:57:53.888Z,7.50
2023-04-03T22:00:23.258Z,8.00
2023-04-03T22:02:57.679Z,6.30
2023-04-03T22:05:32.674Z,6.70
2023-04-03T22:08:01.591Z,7.50
2023-04-03T22:10:29.984Z,7.40
2023-04-03T22:12:58.586Z,7.40
2023-04-03T22:15:29.708Z,7.30
2023-04-03T22:18:00.992Z,9.10
2023-04-03T22:20:29.135Z,7.20
2023-04-03T22:22:57.666Z,7.30
2023-04-03T22:25:25.779Z,6.40
2023-04-03T22:27:54.488Z,6.50
2023-04-03T22:30:23.390Z,8.40
2023-04-03T22:32:52.097Z,7.40
2023-04-03T22:35:23.986Z,7.60
2023-04-03T22:37:52.853Z,6.60
2023-04-03T22:40:20.953Z,6.70
2023-04-03T22:42:49.237Z,6.60
2023-04-03T22:45:17.283Z,6.50
2023-04-03T22:47:47.027Z,5.50
2023-04-03T22:50:17.551Z,6.30
2023-04-03T22:52:47.478Z,6.60
2023-04-03T22:55:19.475Z,6.10
2023-04-03T22:57:50.233Z,7.40
2023-04-03T23:00:21.113Z,6.80
2023-04-03T23:02:50.282Z,7.20
2023-04-03T23:05:19.086Z,8.60
2023-04-03T23:07:47.807Z,6.80
2023-04-03T23:10:16.667Z,8.20
2023-04-03T23:12:46.990Z,7.10
2023-04-03T23:15:19.764Z,5.90
2023-04-03T23:17:50.136Z,5.90
2023-04-03T23:20:21.087Z,5.00
2023-04-03T23:22:50.450Z,5.20
2023-04-03T23:25:22.742Z,6.20
2023-04-03T23:27:55.149Z,6.10
2023-04-03T23:30:26.229Z,4.30
2023-04-03T23:32:56.741Z,5.10
2023-04-03T23:35:25.139Z,5.00
2023-04-03T23:37:53.535Z,5.00
2023-04-03T23:40:22.102Z,5.70
2023-04-03T23:42:50.275Z,5.00
2023-04-03T23:45:18.955Z,6.20
2023-04-03T23:47:47.440Z,5.50
2023-04-03T23:50:16.857Z,5.00
2023-04-03T23:52:47.373Z,5.20
2023-04-03T23:55:17.819Z,4.30
2023-04-03T23:57:47.815Z,4.00
